createdAt,value
2018-07-10T00:04:24.690Z,8.27
2018-07-10T00:09:07.566Z,8.47
2018-07-10T00:11:36.150Z,5.63
2018-07-10T00:14:04.741Z,8.57
2018-07-10T00:16:33.370Z,6.43
2018-07-10T00:19:01.981Z,6.60
2018-07-10T00:21:30.617Z,11.00
2018-07-10T00:23:59.220Z,8.30
2018-07-10T00:26:27.857Z,9.83
2018-07-10T00:28:56.514Z,5.83
2018-07-10T00:31:25.117Z,6.50
2018-07-10T00:33:53.940Z,8.50
2018-07-10T00:36:22.593Z,10.40
2018-07-10T00:39:01.853Z,7.53
2018-07-10T00:41:33.909Z,7.43
2018-07-10T00:44:03.328Z,7.43
2018-07-10T00:46:33.880Z,6.10
2018-07-10T00:49:02.642Z,7.33
2018-07-10T00:51:35.702Z,10.30
2018-07-10T00:54:04.421Z,6.27
2018-07-10T00:56:33.041Z,6.50
2018-07-10T00:59:04.659Z,8.10
2018-07-10T01:01:33.886Z,8.93
2018-07-10T01:04:02.544Z,7.83
2018-07-10T01:06:31.421Z,8.70
2018-07-10T01:09:00.022Z,6.30
2018-07-10T01:11:29.107Z,7.10
2018-07-10T01:13:57.797Z,6.50
2018-07-10T01:16:33.738Z,8.40
2018-07-10T01:19:04.593Z,5.80
2018-07-10T01:21:33.255Z,6.40
2018-07-10T01:24:04.046Z,5.73
2018-07-10T01:26:34.941Z,7.90
2018-07-10T01:29:09.760Z,7.87
2018-07-10T01:31:40.510Z,7.20
2018-07-10T01:34:09.143Z,6.60
2018-07-10T01:36:37.790Z,8.53
2018-07-10T01:39:06.945Z,6.23
2018-07-10T01:41:36.209Z,7.03
2018-07-10T01:44:04.908Z,9.70
2018-07-10T01:46:33.577Z,6.43
2018-07-10T01:49:02.353Z,7.10
2018-07-10T01:51:32.201Z,8.63
2018-07-10T01:54:00.905Z,7.57
2018-07-10T01:56:29.982Z,7.70
2018-07-10T01:58:58.759Z,6.80
2018-07-10T02:01:27.419Z,6.50
2018-07-10T02:03:57.551Z,7.03
2018-07-10T02:06:26.233Z,7.67
2018-07-10T02:08:55.091Z,12.03
2018-07-10T02:11:23.780Z,11.60
2018-07-10T02:13:52.427Z,9.83
2018-07-10T02:16:21.059Z,10.53
2018-07-10T02:18:49.894Z,6.90
2018-07-10T02:21:18.555Z,6.87
2018-07-10T02:23:47.419Z,7.30
2018-07-10T02:26:27.969Z,7.83
2018-07-10T02:28:57.128Z,8.93
2018-07-10T02:31:25.787Z,8.03
2018-07-10T02:33:54.757Z,8.30
2018-07-10T02:36:24.262Z,14.33
2018-07-10T02:38:58.200Z,8.47
2018-07-10T02:41:27.007Z,11.77
2018-07-10T02:43:59.965Z,7.90
2018-07-10T02:46:29.667Z,8.50
2018-07-10T02:49:02.953Z,7.87
2018-07-10T02:51:31.695Z,11.07
2018-07-10T02:54:00.390Z,11.63
2018-07-10T02:56:29.085Z,12.00
2018-07-10T02:59:01.695Z,10.53
2018-07-10T03:01:30.369Z,8.40
2018-07-10T03:03:59.820Z,11.63
2018-07-10T03:06:28.556Z,11.27
2018-07-10T03:08:57.417Z,10.40
2018-07-10T03:11:26.083Z,16.67
2018-07-10T03:13:54.716Z,9.87
2018-07-10T03:16:23.398Z,9.60
2018-07-10T03:18:52.214Z,9.47
2018-07-10T03:21:20.816Z,10.73
2018-07-10T03:23:49.456Z,9.67
2018-07-10T03:26:18.109Z,11.37
2018-07-10T03:28:46.749Z,9.60
2018-07-10T03:31:15.365Z,11.37
2018-07-10T03:33:44.087Z,8.63
2018-07-10T03:36:12.789Z,14.47
2018-07-10T03:38:42.163Z,8.93
2018-07-10T03:41:10.822Z,13.20
2018-07-10T03:43:39.481Z,8.60
2018-07-10T03:46:08.167Z,11.23
2018-07-10T03:48:36.805Z,10.97
2018-07-10T03:51:05.439Z,13.00
2018-07-10T03:53:34.114Z,9.87
2018-07-10T03:56:02.762Z,9.70
2018-07-10T03:58:31.498Z,8.90
2018-07-10T04:01:00.387Z,9.90
2018-07-10T04:03:32.210Z,9.10
2018-07-10T04:06:01.429Z,10.10
2018-07-10T04:08:30.566Z,10.00
2018-07-10T04:11:00.560Z,11.00
2018-07-10T04:13:29.213Z,13.93
2018-07-10T04:16:00.160Z,10.50
2018-07-10T04:18:29.969Z,10.63
2018-07-10T04:21:06.066Z,7.57
2018-07-10T04:23:36.320Z,7.23
2018-07-10T04:26:13.266Z,6.87
2018-07-10T04:28:42.124Z,7.20
2018-07-10T04:31:47.853Z,8.23
2018-07-10T04:34:16.605Z,12.20
2018-07-10T04:36:45.279Z,9.07
2018-07-10T04:39:13.936Z,10.67
2018-07-10T04:41:43.466Z,5.93
2018-07-10T04:44:13.705Z,6.23
2018-07-10T04:46:45.603Z,6.80
2018-07-10T04:49:36.062Z,9.50
2018-07-10T04:52:17.643Z,7.20
2018-07-10T04:54:56.251Z,8.40
2018-07-10T04:57:32.481Z,8.30
2018-07-10T05:00:05.022Z,8.40
2018-07-10T05:02:34.585Z,6.13
2018-07-10T05:05:03.259Z,9.00
2018-07-10T05:07:31.957Z,6.83
2018-07-10T05:10:00.775Z,7.20
2018-07-10T05:12:29.443Z,12.50
2018-07-10T05:14:58.148Z,10.30
2018-07-10T05:17:26.788Z,8.37
2018-07-10T05:19:56.118Z,9.87
2018-07-10T05:22:25.509Z,12.80
2018-07-10T05:24:54.264Z,8.07
2018-07-10T05:27:22.901Z,6.63
2018-07-10T05:29:51.801Z,6.23
2018-07-10T05:32:20.447Z,8.10
2018-07-10T05:34:49.120Z,6.67
2018-07-10T05:37:28.666Z,6.90
2018-07-10T05:39:58.682Z,7.93
2018-07-10T05:42:27.395Z,7.00
2018-07-10T05:44:56.056Z,6.73
2018-07-10T05:47:25.597Z,8.80
2018-07-10T05:49:57.938Z,7.80
2018-07-10T05:52:26.669Z,6.80
2018-07-10T05:54:55.571Z,11.20
2018-07-10T05:57:24.233Z,7.50
2018-07-10T05:59:52.911Z,11.00
2018-07-10T06:02:21.593Z,10.23
2018-07-10T06:04:50.257Z,19.80
2018-07-10T06:07:19.225Z,12.90
2018-07-10T06:09:47.867Z,12.00
2018-07-10T06:12:16.957Z,14.60
2018-07-10T06:14:45.594Z,12.80
2018-07-10T06:17:14.235Z,18.00
2018-07-10T06:19:43.031Z,22.70
2018-07-10T06:22:11.825Z,34.70
2018-07-10T06:24:40.452Z,31.20
2018-07-10T06:27:09.226Z,11.37
2018-07-10T06:30:02.979Z,15.07
2018-07-10T06:32:41.561Z,10.43
2018-07-10T06:35:10.281Z,11.20
2018-07-10T06:37:42.673Z,11.53
2018-07-10T06:40:11.301Z,7.90
2018-07-10T06:42:52.117Z,10.13
2018-07-10T06:45:20.854Z,13.33
2018-07-10T06:47:50.500Z,9.90
2018-07-10T06:50:21.924Z,9.23
2018-07-10T06:52:52.722Z,9.00
2018-07-10T06:55:21.316Z,8.50
2018-07-10T06:57:53.856Z,9.90
2018-07-10T07:00:22.545Z,9.60
2018-07-10T07:02:51.329Z,8.40
2018-07-10T07:05:20.237Z,13.90
2018-07-10T07:07:48.879Z,7.40
2018-07-10T07:10:17.960Z,9.37
2018-07-10T07:12:47.040Z,7.87
2018-07-10T07:15:20.437Z,13.83
2018-07-10T07:17:53.254Z,9.20
2018-07-10T07:20:22.809Z,9.20
2018-07-10T07:22:51.908Z,9.63
2018-07-10T07:25:20.567Z,13.10
2018-07-10T07:27:49.222Z,8.00
2018-07-10T07:30:18.046Z,11.57
2018-07-10T07:32:46.725Z,10.30
2018-07-10T07:35:15.421Z,11.67
2018-07-10T07:37:44.074Z,7.43
2018-07-10T07:40:13.245Z,11.83
2018-07-10T07:42:42.189Z,7.43
2018-07-10T07:45:10.944Z,11.03
2018-07-10T07:47:39.621Z,8.67
2018-07-10T07:50:08.238Z,8.17
2018-07-10T07:52:37.058Z,10.60
2018-07-10T07:55:05.753Z,7.40
2018-07-10T07:57:34.423Z,10.97
2018-07-10T08:00:03.109Z,10.67
2018-07-10T08:02:31.799Z,14.57
2018-07-10T08:05:00.533Z,7.83
2018-07-10T08:07:29.264Z,7.33
2018-07-10T08:09:58.570Z,9.57
2018-07-10T08:12:28.885Z,10.67
2018-07-10T08:14:57.994Z,11.00
2018-07-10T08:17:26.744Z,9.17
2018-07-10T08:19:57.017Z,12.23
2018-07-10T08:22:26.594Z,9.43
2018-07-10T08:37:46.454Z,12.57
2018-07-10T08:40:15.166Z,8.23
2018-07-10T08:42:43.964Z,13.93
2018-07-10T08:45:13.486Z,11.07
2018-07-10T08:47:42.349Z,6.90
2018-07-10T08:50:11.672Z,12.23
2018-07-10T08:52:40.463Z,7.23
2018-07-10T08:55:09.119Z,19.33
2018-07-10T08:57:37.810Z,8.10
2018-07-10T09:00:06.586Z,6.07
2018-07-10T09:02:35.316Z,12.23
2018-07-10T09:05:04.193Z,13.10
2018-07-10T09:07:32.932Z,9.27
2018-07-10T09:10:02.203Z,9.47
2018-07-10T09:12:30.863Z,6.10
2018-07-10T09:14:59.572Z,6.87
2018-07-10T09:17:28.766Z,6.93
2018-07-10T09:19:59.286Z,6.83
2018-07-10T09:22:27.998Z,9.47
2018-07-10T09:24:57.540Z,19.43
2018-07-10T09:27:26.204Z,8.63
2018-07-10T09:29:55.035Z,7.30
2018-07-10T09:32:29.683Z,18.70
2018-07-10T09:34:59.185Z,8.97
2018-07-10T09:37:35.451Z,6.23
2018-07-10T09:40:09.564Z,11.93
2018-07-10T09:42:43.817Z,10.80
2018-07-10T09:45:12.591Z,7.67
2018-07-10T09:47:41.330Z,9.90
2018-07-10T09:50:09.973Z,7.67
2018-07-10T09:52:38.613Z,9.73
2018-07-10T09:55:07.321Z,10.83
2018-07-10T09:57:35.993Z,11.73
2018-07-10T10:00:04.828Z,13.13
2018-07-10T10:02:34.753Z,7.10
2018-07-10T10:05:05.625Z,6.47
2018-07-10T10:07:34.311Z,8.50
2018-07-10T10:10:03.917Z,10.87
2018-07-10T10:12:33.044Z,7.80
2018-07-10T10:15:01.694Z,6.63
2018-07-10T10:17:31.255Z,6.17
2018-07-10T10:20:00.170Z,8.20
2018-07-10T10:22:30.973Z,6.33
2018-07-10T10:25:00.355Z,7.03
2018-07-10T10:27:30.019Z,8.17
2018-07-10T10:29:59.213Z,7.73
2018-07-10T10:32:27.989Z,6.40
2018-07-10T10:34:56.891Z,10.10
2018-07-10T10:37:25.535Z,8.43
2018-07-10T10:39:55.485Z,6.50
2018-07-10T10:42:24.736Z,7.47
2018-07-10T10:44:54.629Z,7.10
2018-07-10T10:47:24.241Z,8.70
2018-07-10T10:49:53.850Z,8.00
2018-07-10T10:52:22.584Z,11.93
2018-07-10T10:54:51.331Z,10.77
2018-07-10T10:57:20.058Z,6.70
2018-07-10T10:59:50.825Z,10.33
2018-07-10T11:02:20.085Z,7.73
2018-07-10T11:04:50.602Z,7.03
2018-07-10T11:07:19.721Z,11.63
2018-07-10T11:09:48.684Z,8.13
2018-07-10T11:12:17.327Z,8.60
2018-07-10T11:14:46.553Z,7.67
2018-07-10T11:17:21.291Z,19.07
2018-07-10T11:19:56.457Z,26.03
2018-07-10T11:22:25.185Z,15.43
2018-07-10T11:25:03.151Z,14.93
2018-07-10T11:27:43.690Z,21.50
2018-07-10T11:30:12.431Z,13.77
2018-07-10T11:32:41.155Z,13.50
2018-07-10T11:35:09.917Z,21.93
2018-07-10T11:37:39.102Z,15.03
2018-07-10T11:40:07.821Z,16.53
2018-07-10T11:42:37.092Z,21.87
2018-07-10T11:45:05.815Z,18.80
2018-07-10T11:47:34.882Z,17.37
2018-07-10T11:50:03.679Z,12.53
2018-07-10T11:52:32.461Z,15.87
2018-07-10T11:55:01.165Z,18.27
2018-07-10T11:57:29.925Z,17.70
2018-07-10T11:59:58.696Z,16.93
2018-07-10T12:02:41.498Z,17.90
2018-07-10T12:05:09.746Z,15.93
2018-07-10T12:07:39.717Z,16.40
2018-07-10T12:10:24.278Z,18.83
2018-07-10T12:12:53.671Z,17.67
2018-07-10T12:15:22.769Z,14.27
2018-07-10T12:17:53.714Z,16.77
2018-07-10T12:20:27.413Z,18.93
2018-07-10T12:22:56.126Z,15.27
2018-07-10T12:25:24.895Z,16.30
2018-07-10T12:27:53.758Z,17.10
2018-07-10T12:30:23.251Z,14.07
2018-07-10T12:32:51.969Z,13.00
2018-07-10T12:35:20.669Z,13.23
2018-07-10T12:37:49.359Z,15.00
2018-07-10T12:40:18.107Z,19.50
2018-07-10T12:42:46.842Z,27.63
2018-07-10T12:45:15.574Z,17.60
2018-07-10T12:47:44.276Z,21.07
2018-07-10T12:50:13.194Z,20.17
2018-07-10T12:52:41.913Z,15.80
2018-07-10T12:55:10.682Z,21.70
2018-07-10T12:57:42.468Z,22.20
2018-07-10T13:00:11.267Z,25.10
2018-07-10T13:02:43.924Z,16.37
2018-07-10T13:05:14.067Z,18.23
2018-07-10T13:07:42.838Z,15.83
2018-07-10T13:10:12.387Z,14.17
2018-07-10T13:12:41.099Z,18.30
2018-07-10T13:15:09.831Z,15.23
2018-07-10T13:17:43.639Z,18.70
2018-07-10T13:20:12.662Z,15.77
2018-07-10T13:22:41.310Z,21.90
2018-07-10T13:25:10.076Z,20.50
2018-07-10T13:27:38.713Z,19.00
2018-07-10T13:30:07.638Z,16.10
2018-07-10T13:32:37.357Z,14.20
2018-07-10T13:35:06.038Z,13.90
2018-07-10T13:37:36.816Z,17.03
2018-07-10T13:40:06.083Z,18.40
2018-07-10T13:42:47.038Z,17.93
2018-07-10T13:45:16.692Z,19.53
2018-07-10T13:47:45.355Z,13.47
2018-07-10T13:50:16.853Z,13.30
2018-07-10T13:52:45.857Z,19.53
2018-07-10T13:55:14.487Z,17.67
2018-07-10T13:58:16.338Z,18.17
2018-07-10T14:00:47.774Z,12.20
2018-07-10T14:03:16.516Z,13.87
2018-07-10T14:05:45.186Z,13.63
2018-07-10T14:08:13.862Z,9.73
2018-07-10T14:10:42.550Z,9.30
2018-07-10T14:13:11.246Z,11.93
2018-07-10T14:15:40.951Z,9.67
2018-07-10T14:18:09.715Z,9.17
2018-07-10T14:20:55.236Z,10.87
2018-07-10T14:23:23.945Z,7.27
2018-07-10T14:25:53.145Z,11.13
2018-07-10T14:28:21.948Z,9.70
2018-07-10T14:30:50.591Z,5.70
2018-07-10T14:33:19.581Z,6.00
2018-07-10T14:35:48.258Z,8.50
2018-07-10T14:38:23.910Z,5.43
2018-07-10T14:40:52.770Z,5.77
2018-07-10T14:43:27.481Z,5.37
2018-07-10T14:46:01.437Z,4.43
2018-07-10T14:48:33.846Z,4.63
2018-07-10T14:51:02.510Z,6.37
2018-07-10T14:53:31.179Z,5.30
2018-07-10T14:55:59.993Z,6.00
2018-07-10T14:58:28.653Z,9.80
2018-07-10T15:00:57.360Z,5.43
2018-07-10T15:03:26.084Z,6.13
2018-07-10T15:05:54.768Z,7.30
2018-07-10T15:08:23.477Z,8.43
2018-07-10T15:10:52.168Z,6.40
2018-07-10T15:13:20.813Z,7.20
2018-07-10T15:16:04.919Z,7.13
2018-07-10T15:18:39.456Z,7.10
2018-07-10T15:21:13.610Z,6.10
2018-07-10T15:23:42.395Z,6.87
2018-07-10T15:26:10.955Z,6.87
2018-07-10T15:28:39.650Z,6.10
2018-07-10T15:31:08.408Z,7.53
2018-07-10T15:33:37.014Z,7.93
2018-07-10T15:36:06.471Z,8.10
2018-07-10T15:38:35.334Z,7.53
2018-07-10T15:41:04.050Z,7.33
2018-07-10T15:43:32.757Z,8.47
2018-07-10T15:46:01.456Z,8.70
2018-07-10T15:48:30.099Z,8.90
2018-07-10T15:50:58.761Z,8.30
2018-07-10T15:53:27.586Z,8.00
2018-07-10T15:55:56.264Z,10.13
2018-07-10T15:58:24.904Z,8.30
2018-07-10T16:00:53.662Z,9.50
2018-07-10T16:03:22.416Z,9.30
2018-07-10T16:05:51.079Z,9.63
2018-07-10T16:08:20.729Z,10.00
2018-07-10T16:10:52.787Z,10.23
2018-07-10T16:13:22.410Z,8.40
2018-07-10T16:15:57.911Z,7.83
2018-07-10T16:18:28.645Z,7.03
2018-07-10T16:20:59.314Z,7.93
2018-07-10T16:23:28.309Z,12.17
2018-07-10T16:26:00.666Z,7.70
2018-07-10T16:28:29.187Z,6.20
2018-07-10T16:30:57.833Z,8.07
2018-07-10T16:33:32.682Z,6.47
2018-07-10T16:36:03.034Z,7.27
2018-07-10T16:38:31.948Z,8.87
2018-07-10T16:41:05.844Z,6.97
2018-07-10T16:43:34.646Z,9.63
2018-07-10T16:46:03.979Z,6.80
2018-07-10T16:48:47.953Z,6.90
2018-07-10T16:51:28.859Z,7.63
2018-07-10T16:54:00.823Z,7.00
2018-07-10T16:56:29.753Z,7.33
2018-07-10T16:58:59.121Z,7.50
2018-07-10T17:01:28.419Z,6.50
2018-07-10T17:03:58.856Z,7.40
2018-07-10T17:06:27.555Z,10.87
2018-07-10T17:08:56.354Z,8.20
2018-07-10T17:11:25.077Z,7.97
2018-07-10T17:13:53.819Z,7.97
2018-07-10T17:16:29.638Z,8.17
2018-07-10T17:18:58.493Z,7.27
2018-07-10T17:21:28.186Z,8.00
2018-07-10T17:23:57.927Z,7.03
2018-07-10T17:26:26.717Z,7.30
2018-07-10T17:28:55.559Z,8.57
2018-07-10T17:31:24.362Z,7.90
2018-07-10T17:33:53.237Z,8.30
2018-07-10T17:36:22.023Z,8.30
2018-07-10T17:38:50.945Z,8.20
2018-07-10T17:41:20.415Z,8.70
2018-07-10T17:43:49.774Z,8.03
2018-07-10T17:46:18.621Z,7.37
2018-07-10T17:48:47.710Z,8.00
2018-07-10T17:51:16.652Z,7.77
2018-07-10T17:53:45.536Z,7.27
2018-07-10T17:56:14.499Z,8.50
2018-07-10T17:58:43.178Z,8.97
2018-07-10T18:01:11.917Z,7.77
2018-07-10T18:03:41.357Z,11.93
2018-07-10T18:06:10.222Z,8.37
2018-07-10T18:08:39.072Z,9.93
2018-07-10T18:11:07.793Z,10.00
2018-07-10T18:13:36.554Z,9.97
2018-07-10T18:16:05.206Z,8.20
2018-07-10T18:18:34.039Z,8.10
2018-07-10T18:21:02.903Z,9.87
2018-07-10T18:23:31.755Z,9.40
2018-07-10T18:26:01.051Z,9.37
2018-07-10T18:28:30.004Z,10.20
2018-07-10T18:30:58.697Z,9.63
2018-07-10T18:33:27.375Z,10.20
2018-07-10T18:35:56.187Z,12.10
2018-07-10T18:38:24.920Z,10.30
2018-07-10T18:40:53.717Z,12.23
2018-07-10T18:43:22.731Z,12.15
2018-07-10T18:45:51.684Z,13.63
2018-07-10T18:48:25.552Z,13.57
2018-07-10T18:50:54.467Z,13.80
2018-07-10T18:53:23.280Z,13.90
2018-07-10T18:55:52.831Z,14.83
2018-07-10T18:58:26.660Z,13.60
2018-07-10T19:01:01.460Z,14.70
2018-07-10T19:03:31.759Z,14.70
2018-07-10T19:06:05.099Z,15.30
2018-07-10T19:08:34.032Z,16.10
2018-07-10T19:11:02.926Z,15.70
2018-07-10T19:13:31.771Z,14.10
2018-07-10T19:16:00.680Z,17.00
2018-07-10T19:18:29.506Z,13.00
2018-07-10T19:21:07.122Z,14.93
2018-07-10T19:23:45.515Z,14.43
2018-07-10T19:26:14.673Z,18.50
2018-07-10T19:28:43.589Z,12.83
2018-07-10T19:31:16.726Z,12.17
2018-07-10T19:33:49.470Z,11.50
2018-07-10T19:36:18.413Z,13.33
2018-07-10T19:38:47.397Z,11.57
2018-07-10T19:41:16.193Z,12.60
2018-07-10T19:43:45.016Z,8.90
2018-07-10T19:46:13.821Z,10.20
2018-07-10T19:48:46.629Z,9.07
2018-07-10T19:51:15.536Z,9.43
2018-07-10T19:53:47.220Z,8.20
2018-07-10T19:56:16.035Z,8.07
2018-07-10T19:58:45.464Z,8.67
2018-07-10T20:01:19.660Z,8.70
2018-07-10T20:04:03.480Z,8.67
2018-07-10T20:06:53.558Z,11.27
2018-07-10T20:09:22.508Z,10.03
2018-07-10T20:12:04.223Z,8.57
2018-07-10T20:14:40.190Z,10.73
2018-07-10T20:17:12.234Z,10.20
2018-07-10T20:19:49.375Z,11.47
2018-07-10T20:22:29.420Z,10.50
2018-07-10T20:25:08.657Z,10.60
2018-07-10T20:27:49.386Z,9.17
2018-07-10T20:31:28.050Z,10.97
2018-07-10T20:34:20.624Z,11.40
2018-07-10T20:36:54.081Z,13.20
2018-07-10T20:39:30.710Z,13.87
2018-07-10T20:41:59.430Z,14.80
2018-07-10T20:44:28.414Z,15.13
2018-07-10T20:47:02.630Z,14.57
2018-07-10T20:50:00.872Z,15.40
2018-07-10T20:52:45.669Z,15.47
2018-07-10T20:55:14.654Z,20.60
2018-07-10T20:58:05.281Z,17.70
2018-07-10T21:01:07.600Z,16.63
2018-07-10T21:03:49.149Z,16.50
2018-07-10T21:06:32.515Z,17.83
2018-07-10T21:09:11.404Z,17.70
2018-07-10T21:11:50.140Z,14.67
2018-07-10T21:14:25.660Z,14.33
2018-07-10T21:17:18.841Z,13.90
2018-07-10T21:22:03.243Z,12.10
2018-07-10T21:24:44.547Z,12.80
2018-07-10T21:27:16.629Z,13.30
2018-07-10T21:29:57.990Z,10.67
2018-07-10T21:33:04.889Z,10.20
2018-07-10T21:35:41.408Z,11.77
2018-07-10T21:38:18.161Z,13.53
2018-07-10T21:43:01.261Z,10.90
2018-07-10T21:45:43.195Z,11.50
2018-07-10T21:48:21.044Z,10.70
2018-07-10T21:50:53.354Z,12.60
2018-07-10T21:53:23.342Z,12.60
2018-07-10T21:55:52.023Z,13.63
2018-07-10T21:58:22.129Z,15.70
2018-07-10T22:02:01.838Z,16.13
2018-07-10T22:04:36.769Z,13.13
2018-07-10T22:07:06.226Z,12.47
2018-07-10T22:09:37.162Z,12.70
2018-07-10T22:12:11.073Z,13.83
2018-07-10T22:14:39.957Z,13.27
2018-07-10T22:17:14.343Z,16.60
2018-07-10T22:19:45.263Z,18.63
2018-07-10T22:22:15.763Z,22.80
2018-07-10T22:24:44.451Z,19.93
2018-07-10T22:27:14.350Z,21.20
2018-07-10T22:29:48.251Z,26.27
2018-07-10T22:32:22.191Z,26.87
2018-07-10T22:34:50.920Z,27.27
2018-07-10T22:37:19.635Z,25.07
2018-07-10T22:39:48.350Z,28.80
2018-07-10T22:42:17.031Z,28.40
2018-07-10T22:44:49.637Z,29.27
2018-07-10T22:47:22.800Z,28.30
2018-07-10T22:49:51.540Z,27.70
2018-07-10T22:52:20.363Z,29.17
2018-07-10T22:54:50.382Z,26.80
2018-07-10T22:57:19.081Z,28.77
2018-07-10T22:59:47.833Z,28.10
2018-07-10T23:02:19.443Z,27.40
2018-07-10T23:04:48.602Z,25.47
2018-07-10T23:07:17.391Z,25.40
2018-07-10T23:09:46.187Z,24.87
2018-07-10T23:12:14.939Z,25.47
2018-07-10T23:14:43.666Z,26.63
2018-07-10T23:17:12.431Z,26.40
2018-07-10T23:19:41.167Z,26.60
2018-07-10T23:22:09.850Z,28.30
2018-07-10T23:24:38.535Z,23.67
2018-07-10T23:27:07.350Z,21.87
2018-07-10T23:29:38.899Z,23.10
2018-07-10T23:32:07.804Z,20.90
2018-07-10T23:34:36.536Z,17.60
2018-07-10T23:37:09.795Z,25.87
2018-07-10T23:39:45.805Z,20.27
2018-07-10T23:42:29.447Z,19.57
2018-07-10T23:45:02.847Z,18.73
2018-07-10T23:47:33.158Z,19.17
2018-07-10T23:50:14.271Z,18.70
2018-07-10T23:54:49.383Z,19.40
2018-07-10T23:57:18.043Z,15.47
2018-07-10T23:59:46.749Z,18.50
